Home > Products > Valid Products > TAF

000
FTUS43 KLSX 051133
TAFCOU
TAF
KCOU 051133Z 0512/0612 15005KT P6SM SKC
     FM051400 16008KT P6SM FEW060
     FM060000 14005KT P6SM SKC=



000
FTUS43 KLSX 051133
TAFSTL
TAF
KSTL 051133Z 0512/0618 VRB04KT P6SM SKC
     FM051400 15007KT P6SM FEW060
     FM060000 14005KT P6SM SKC
     FM061500 17007KT P6SM SKC=



000
FTUS43 KLSX 051133
TAFSUS
TAF
KSUS 051133Z 0512/0612 VRB03KT 5SM BR SKC
     FM051400 15006KT P6SM FEW060
     FM060000 VRB03KT P6SM SKC=



000
FTUS43 KLSX 051133
TAFUIN
TAF
KUIN 051133Z 0512/0612 VRB04KT P6SM SKC
     FM051400 18008KT P6SM FEW050
     FM060000 14005KT P6SM SKC=



000
FTUS43 KLSX 050909 AAA
TAFSTL
TAF AMD
KSTL 050909Z 0509/0612 21005KT P6SM SKC
     FM051400 18007KT P6SM FEW060
     FM060000 15005KT P6SM SKC=



000
FTUS43 KLSX 050520
TAFSUS
TAF
KSUS 050520Z 0506/0606 VRB05KT P6SM SKC
     FM051400 17006KT P6SM FEW060
     FM060000 15005KT P6SM SKC=



000
FTUS43 KLSX 050520
TAFCOU
TAF
KCOU 050520Z 0506/0606 16004KT P6SM SKC
     FM051400 18008KT P6SM FEW060
     FM060000 16005KT P6SM SKC=



000
FTUS43 KLSX 050520
TAFUIN
TAF
KUIN 050520Z 0506/0606 17004KT P6SM SKC
     FM051400 21008KT P6SM FEW050
     FM060000 17005KT P6SM SKC=



000
FTUS43 KLSX 050520
TAFSTL
TAF
KSTL 050520Z 0506/0612 17004KT P6SM SKC
     FM051400 17007KT P6SM FEW060
     FM060000 15005KT P6SM SKC=



000
FTUS43 KLSX 050520
TAFUIN
TAF
KUIN 050520Z 0506/0606 17004KT P6SM SKC
     FM051400 21008KT P6SM FEW050
     FM060000 17005KT P6SM SKC=



000
FTUS43 KLSX 050253 AAA
TAFSTL
TAF AMD
KSTL 050253Z 0503/0606 17004KT P6SM SKC
     FM051400 17007KT P6SM FEW060
     FM060000 15005KT P6SM SKC=



000
FTUS43 KLSX 042320
TAFCOU
TAF
KCOU 042320Z 0500/0524 16004KT P6SM SKC
     FM051400 18008KT P6SM FEW060=



000
FTUS43 KLSX 042320
TAFCOU
TAF
KCOU 042320Z 0500/0524 16004KT P6SM SKC
     FM051400 18008KT P6SM FEW060=



000
FTUS43 KLSX 042320
TAFUIN
TAF
KUIN 042320Z 0500/0524 17004KT P6SM SKC
     FM051400 21008KT P6SM FEW050=



000
FTUS43 KLSX 042320
TAFSTL
TAF
KSTL 042320Z 0500/0606 17004KT P6SM SKC
     FM051400 17007KT P6SM FEW060
     FM060000 15005KT P6SM SKC=



000
FTUS43 KLSX 042320
TAFUIN
TAF
KUIN 042320Z 0500/0524 17004KT P6SM SKC
     FM051400 21008KT P6SM FEW050=



000
FTUS43 KLSX 042320
TAFSUS
TAF
KSUS 042320Z 0500/0524 VRB05KT P6SM SKC
     FM051400 17006KT P6SM FEW060=



000
FTUS43 KLSX 042320
TAFSUS
TAF
KSUS 042320Z 0500/0524 VRB05KT P6SM SKC
     FM051400 17006KT P6SM FEW060=



000
FTUS43 KLSX 042320
TAFSTL
TAF
KSTL 042320Z 0500/0606 17004KT P6SM SKC
     FM051400 17007KT P6SM FEW060
     FM060000 15005KT P6SM SKC=



000
FTUS43 KLSX 042051 AAA
TAFSTL
TAF AMD
KSTL 042051Z 0421/0524 22006KT P6SM FEW060
     FM050000 16004KT P6SM SKC=



000
FTUS43 KLSX 041720
TAFUIN
TAF
KUIN 041720Z 0418/0518 22006KT P6SM FEW050
     FM050000 16004KT P6SM SKC
     FM051400 21008KT P6SM FEW050=



000
FTUS43 KLSX 041720
TAFCOU
TAF
KCOU 041720Z 0418/0518 19006KT P6SM FEW050
     FM050000 16004KT P6SM SKC
     FM051400 18008KT P6SM FEW060=



000
FTUS43 KLSX 041720
TAFSTL
TAF
KSTL 041720Z 0418/0524 22006KT P6SM FEW050
     FM050000 16004KT P6SM SKC=



000
FTUS43 KLSX 041720
TAFSUS
TAF
KSUS 041720Z 0418/0518 23005KT P6SM FEW050
     FM051400 17004KT P6SM FEW060=



000
FTUS43 KLSX 041720
TAFSUS
TAF
KSUS 041720Z 0418/0518 23005KT P6SM FEW050
     FM051400 17004KT P6SM FEW060=



000
FTUS43 KLSX 041459 AAA
TAFSTL
TAF AMD
KSTL 041459Z 0415/0518 20006KT P6SM FEW050
     FM050000 16004KT P6SM SKC=



000
FTUS43 KLSX 041459 AAA
TAFSUS
TAF AMD
KSUS 041459Z 0415/0512 22004KT P6SM SCT200
     FM041800 20005KT P6SM FEW050=



000
FTUS43 KLSX 041459 AAA
TAFSUS
TAF AMD
KSUS 041459Z 0415/0512 22004KT P6SM SCT200
     FM041800 20005KT P6SM FEW050=



000
FTUS43 KLSX 041459 AAA
TAFSTL
TAF AMD
KSTL 041459Z 0415/0518 20006KT P6SM FEW050
     FM050000 16004KT P6SM SKC=



000
FTUS43 KLSX 041134
TAFSTL
TAF
KSTL 041134Z 0412/0518 VRB03KT P6SM SCT200
     FM041800 20006KT P6SM FEW050
     FM050000 16004KT P6SM SKC=



000
FTUS43 KLSX 041134
TAFCOU
TAF
KCOU 041134Z 0412/0512 16005KT P6SM SCT250
     FM041800 19006KT P6SM FEW050
     FM050000 16004KT P6SM SKC=



000
FTUS43 KLSX 041134
TAFSUS
TAF
KSUS 041134Z 0412/0512 VRB03KT 4SM BR SCT200
     FM041300 22004KT P6SM SCT200
     FM041800 20005KT P6SM FEW050=



000
FTUS43 KLSX 041134
TAFUIN
TAF
KUIN 041134Z 0412/0512 19004KT P6SM SCT250
     FM041800 20006KT P6SM FEW050
     FM050000 16004KT P6SM SKC=



000
FTUS43 KLSX 041134
TAFSTL
TAF
KSTL 041134Z 0412/0518 VRB03KT P6SM SCT200
     FM041800 20006KT P6SM FEW050
     FM050000 16004KT P6SM SKC=



000
FTUS43 KLSX 041134
TAFSUS
TAF
KSUS 041134Z 0412/0512 VRB03KT 4SM BR SCT200
     FM041300 22004KT P6SM SCT200
     FM041800 20005KT P6SM FEW050=



000
FTUS43 KLSX 041134
TAFUIN
TAF
KUIN 041134Z 0412/0512 19004KT P6SM SCT250
     FM041800 20006KT P6SM FEW050
     FM050000 16004KT P6SM SKC=



000
FTUS43 KLSX 041134
TAFCOU
TAF
KCOU 041134Z 0412/0512 16005KT P6SM SCT250
     FM041800 19006KT P6SM FEW050
     FM050000 16004KT P6SM SKC=



000
FTUS43 KLSX 040859 AAA
TAFSTL
TAF AMD
KSTL 040859Z 0409/0512 VRB03KT P6SM FEW100
     FM041800 20006KT P6SM FEW050
     FM050000 16004KT P6SM SKC=



000
FTUS43 KLSX 040859 AAA
TAFSTL
TAF AMD
KSTL 040859Z 0409/0512 VRB03KT P6SM FEW100
     FM041800 20006KT P6SM FEW050
     FM050000 16004KT P6SM SKC=



000
FTUS43 KLSX 040520
TAFSTL
TAF
KSTL 040520Z 0406/0512 VRB03KT P6SM FEW100
     FM041800 20006KT P6SM FEW050
     FM050000 16004KT P6SM SKC=



000
FTUS43 KLSX 040520
TAFUIN
TAF
KUIN 040520Z 0406/0506 18004KT P6SM SCT250
     FM041800 20006KT P6SM FEW050
     FM050000 16004KT P6SM SKC=



000
FTUS43 KLSX 040520
TAFCOU
TAF
KCOU 040520Z 0406/0506 17004KT P6SM SCT250
     FM041800 19006KT P6SM FEW050
     FM050000 16004KT P6SM SKC=



000
FTUS43 KLSX 040520
TAFSUS
TAF
KSUS 040520Z 0406/0506 00000KT P6SM FEW100
     FM040800 00000KT 5SM BR SKC
      TEMPO 0408/0411 1SM BR
     FM041200 VRB03KT P6SM SKC
     FM041800 20005KT P6SM FEW050=



000
FTUS43 KLSX 040253 AAA
TAFSTL
TAF AMD
KSTL 040253Z 0403/0506 20004KT P6SM SCT250
     FM041800 19006KT P6SM FEW050
     FM050000 16004KT P6SM SKC=



000
FTUS43 KLSX 040253 AAA
TAFSTL
TAF AMD
KSTL 040253Z 0403/0506 20004KT P6SM SCT250
     FM041800 19006KT P6SM FEW050
     FM050000 16004KT P6SM SKC=



000
FTUS43 KLSX 032320
TAFCOU
TAF
KCOU 032320Z 0400/0424 18004KT P6SM SKC
     FM041800 20006KT P6SM FEW050=



000
FTUS43 KLSX 032320
TAFSUS
TAF
KSUS 032320Z 0400/0424 VRB03KT P6SM SKC
     FM040600 00000KT 5SM BR SCT250
      TEMPO 0408/0411 1SM BR
     FM041200 VRB03KT P6SM SKC
     FM041800 20005KT P6SM FEW050=



000
FTUS43 KLSX 032320
TAFUIN
TAF
KUIN 032320Z 0400/0424 18004KT P6SM SKC
     FM041800 19006KT P6SM FEW050=



000
FTUS43 KLSX 032320
TAFSTL
TAF
KSTL 032320Z 0400/0506 19004KT P6SM SKC
     FM041800 19006KT P6SM FEW050
     FM050000 16004KT P6SM SKC=



000
FTUS43 KLSX 032054 AAA
TAFSTL
TAF AMD
KSTL 032054Z 0321/0424 23007KT P6SM FEW060
     FM032300 19005KT P6SM FEW060 SCT250=



000
FTUS43 KLSX 031720
TAFSUS
TAF
KSUS 031720Z 0318/0418 22005KT P6SM FEW060 SCT250
     FM040600 00000KT 5SM BR SCT250
      TEMPO 0408/0411 3/4SM BR
     FM041330 21005KT P6SM FEW060 SCT250=



000
FTUS43 KLSX 031720
TAFCOU
TAF
KCOU 031720Z 0318/0418 19007KT P6SM FEW050 SCT250=



000
FTUS43 KLSX 031720
TAFSTL
TAF
KSTL 031720Z 0318/0424 23007KT P6SM FEW060
     FM032100 19005KT P6SM FEW060 SCT250=



000
FTUS43 KLSX 031720
TAFUIN
TAF
KUIN 031720Z 0318/0418 22007KT P6SM FEW050 SCT250=



000
FTUS43 KLSX 031510 AAA
TAFSTL
TAF AMD
KSTL 031510Z 0315/0418 22007KT P6SM FEW060
     FM032100 19005KT P6SM SCT250=



000
FTUS43 KLSX 031126
TAFCOU
TAF
KCOU 031126Z 0312/0412 18005KT P6SM BKN120
      TEMPO 0312/0313 -SHRA
     FM031600 21008KT P6SM FEW050
     FM040100 15004KT P6SM SCT250=



000
FTUS43 KLSX 031126
TAFUIN
TAF
KUIN 031126Z 0312/0412 20005KT P6SM SCT100
     FM031600 22008KT P6SM FEW050
     FM040100 18004KT P6SM SCT250=



000
FTUS43 KLSX 031126
TAFSUS
TAF
KSUS 031126Z 0312/0412 21003KT P6SM SCT120
     FM031600 23007KT P6SM FEW050
     FM040200 00000KT P6SM SCT250
     FM040600 00000KT 5SM BR SCT250
      TEMPO 0408/0411 3/4SM BR=



000
FTUS43 KLSX 031126
TAFSTL
TAF
KSTL 031126Z 0312/0418 21004KT P6SM SCT120
     FM031600 22007KT P6SM FEW050
     FM040100 17004KT P6SM SCT250=



000
FTUS43 KLSX 031001 AAA
TAFCOU
TAF AMD
KCOU 031001Z 0310/0406 17005KT P6SM BKN120
     FM031600 22008KT P6SM FEW050=



000
FTUS43 KLSX 030912 AAA
TAFSTL
TAF AMD
KSTL 030912Z 0309/0412 21004KT P6SM SCT120
     FM031600 23009KT P6SM FEW050=



000
FTUS43 KLSX 030912 AAA
TAFSTL
TAF AMD
KSTL 030912Z 0309/0412 21004KT P6SM SCT120
     FM031600 23009KT P6SM FEW050=



000
FTUS43 KLSX 030717 AAA
TAFSUS
TAF AMD
KSUS 030717Z 0307/0406 00000KT 5SM BR SKC
      TEMPO 0307/0311 3/4SM BR
     FM031200 22004KT P6SM SCT120
     FM031600 23007KT P6SM FEW050=



000
FTUS43 KLSX 030717 AAA
TAFSUS
TAF AMD
KSUS 030717Z 0307/0406 00000KT 5SM BR SKC
      TEMPO 0307/0311 3/4SM BR
     FM031200 22004KT P6SM SCT120
     FM031600 23007KT P6SM FEW050=



000
FTUS43 KLSX 030520
TAFSUS
TAF
KSUS 030520Z 0306/0406 VRB03KT 5SM BR SCT120
      TEMPO 0309/0313 3SM BR
     FM031600 23007KT P6SM FEW050=



000
FTUS43 KLSX 030520
TAFUIN
TAF
KUIN 030520Z 0306/0406 18005KT P6SM BKN100
      TEMPO 0310/0312 5SM BR
     FM031600 23009KT P6SM FEW050=



000
FTUS43 KLSX 030520
TAFUIN
TAF
KUIN 030520Z 0306/0406 18005KT P6SM BKN100
      TEMPO 0310/0312 5SM BR
     FM031600 23009KT P6SM FEW050=



000
FTUS43 KLSX 030520
TAFCOU
TAF
KCOU 030520Z 0306/0406 17005KT P6SM BKN120
      TEMPO 0310/0312 5SM BR
     FM031600 22008KT P6SM FEW050=



000
FTUS43 KLSX 030520
TAFSUS
TAF
KSUS 030520Z 0306/0406 VRB03KT 5SM BR SCT120
      TEMPO 0309/0313 3SM BR
     FM031600 23007KT P6SM FEW050=



000
FTUS43 KLSX 030520
TAFSTL
TAF
KSTL 030520Z 0306/0412 21004KT P6SM SCT120
     FM031600 23009KT P6SM FEW050=



000
FTUS43 KLSX 030520
TAFCOU
TAF
KCOU 030520Z 0306/0406 17005KT P6SM BKN120
      TEMPO 0310/0312 5SM BR
     FM031600 22008KT P6SM FEW050=



000
FTUS43 KLSX 030520
TAFSTL
TAF
KSTL 030520Z 0306/0412 21004KT P6SM SCT120
     FM031600 23009KT P6SM FEW050=



000
FTUS43 KLSX 030255 AAA
TAFSTL
TAF AMD
KSTL 030255Z 0303/0406 19006KT P6SM SCT150
     FM031600 23009KT P6SM FEW050=



000
FTUS43 KLSX 030255 AAA
TAFSTL
TAF AMD
KSTL 030255Z 0303/0406 19006KT P6SM SCT150
     FM031600 23009KT P6SM FEW050=



000
FTUS43 KLSX 022321
TAFSTL
TAF
KSTL 022321Z 0300/0406 19006KT P6SM SCT150
     FM031600 23009KT P6SM FEW050=



000
FTUS43 KLSX 022321
TAFUIN
TAF
KUIN 022321Z 0300/0324 18005KT P6SM SCT150
      TEMPO 0310/0312 5SM BR
     FM031600 22009KT P6SM FEW050=



000
FTUS43 KLSX 022321
TAFSUS
TAF
KSUS 022321Z 0300/0324 VRB03KT P6SM SCT150
      TEMPO 0310/0312 5SM BR
     FM031600 23007KT P6SM FEW050=



000
FTUS43 KLSX 022321
TAFCOU
TAF
KCOU 022321Z 0300/0324 17006KT P6SM FEW150
      TEMPO 0310/0312 5SM BR
     FM031600 21008KT P6SM FEW050=



000
FTUS43 KLSX 022321
TAFSTL
TAF
KSTL 022321Z 0300/0406 19006KT P6SM SCT150
     FM031600 23009KT P6SM FEW050=



000
FTUS43 KLSX 022321
TAFCOU
TAF
KCOU 022321Z 0300/0324 17006KT P6SM FEW150
      TEMPO 0310/0312 5SM BR
     FM031600 21008KT P6SM FEW050=



000
FTUS43 KLSX 022321
TAFUIN
TAF
KUIN 022321Z 0300/0324 18005KT P6SM SCT150
      TEMPO 0310/0312 5SM BR
     FM031600 22009KT P6SM FEW050=



000
FTUS43 KLSX 022321
TAFSUS
TAF
KSUS 022321Z 0300/0324 VRB03KT P6SM SCT150
      TEMPO 0310/0312 5SM BR
     FM031600 23007KT P6SM FEW050=



000
FTUS43 KLSX 021735
TAFSUS
TAF
KSUS 021735Z 0218/0318 21006KT P6SM FEW060 SCT250
      TEMPO 0310/0312 5SM BR=



000
FTUS43 KLSX 021735
TAFCOU
TAF
KCOU 021735Z 0218/0318 21009KT P6SM SCT045 BKN250
      TEMPO 0310/0312 5SM BR=



000
FTUS43 KLSX 021735
TAFSTL
TAF
KSTL 021735Z 0218/0324 23008KT P6SM FEW060 SCT250
     FM022100 19007KT P6SM FEW060 SCT250=



000
FTUS43 KLSX 021735
TAFUIN
TAF
KUIN 021735Z 0218/0318 22009KT P6SM BKN250
      TEMPO 0310/0312 5SM BR=



000
FTUS43 KLSX 021458 AAA
TAFSTL
TAF AMD
KSTL 021458Z 0215/0318 22007KT P6SM FEW050 SCT250
     FM022100 19007KT P6SM SCT060=



    US Dept of Commerce
    National Oceanic and Atmospheric Administration
    National Weather Service
    1325 East West Highway
    Silver Spring, MD 20910
    Page Author: NWS Internet Services Team
Disclaimer
Information Quality
Credits
Glossary
Privacy Policy
Freedom of Information Act (FOIA)
About Us
Career Opportunities